Time;durP1;ratioP1;P1;durP2;ratioP2;P2;SDS_P1;SDS_P2;PMS_P1;PMS_P2;Temp;Humidity;BMP_temperature;BMP_pressure;BME280_temperature;BME280_humidity;BME280_pressure;Samples;Min_cycle;Max_cycle;Signal;HPM_P1;HPM_P2
2022/07/06 00:01:26;;;;;;;;;;;;;;;16.86;51.46;102005.44;5025067;28;20079;-80
2022/07/06 00:03:51;;;;;;;;;;;;;;;16.74;51.80;101993.50;5027951;28;19917;-79
2022/07/06 00:06:17;;;;;;;;;;;;;;;16.86;50.87;102001.06;5051722;28;19925;-77
2022/07/06 00:08:42;;;;;;;;;;;;;;;16.78;51.68;102004.78;5025084;28;19925;-81
2022/07/06 00:11:08;;;;;;;;;;;;;;;16.85;51.40;102001.94;5039438;28;19931;-81
2022/07/06 00:13:33;;;;;;;;;;;;;;;16.51;51.26;102008.97;5039797;28;19921;-79
2022/07/06 00:15:58;;;;;;;;;;;;;;;16.72;50.33;102003.19;5022180;28;19921;-77
2022/07/06 00:18:24;;;;;;;;;;;;;;;16.52;51.16;102003.66;5038592;28;19932;-77
2022/07/06 00:20:49;;;;;;;;;;;;;;;16.62;50.68;101993.81;5039341;28;20387;-81
2022/07/06 00:23:14;;;;;;;;;;;;;;;16.39;51.80;102001.41;5040851;28;19932;-81
2022/07/06 00:25:40;;;;;;;;;;;;;;;16.63;51.09;101997.28;5045517;28;19924;-81
2022/07/06 00:28:05;;;;;;;;;;;;;;;16.32;51.33;101997.22;5032377;28;19921;-79
2022/07/06 00:30:31;;;;;;;;;;;;;;;16.41;51.53;102007.47;5042863;28;19932;-78
2022/07/06 00:32:58;;;;;;;;;;;;;;;16.41;50.23;102000.47;5044739;28;19999;-78
2022/07/06 00:35:23;;;;;;;;;;;;;;;16.57;50.06;102005.31;5015669;28;19921;-78
2022/07/06 00:37:49;;;;;;;;;;;;;;;16.62;49.71;102004.28;5047479;28;20307;-78
2022/07/06 00:40:14;;;;;;;;;;;;;;;16.54;49.70;102003.66;5048887;28;19921;-78
2022/07/06 00:42:41;;;;;;;;;;;;;;;16.15;51.09;102007.25;5045590;28;19928;-78
2022/07/06 00:45:06;;;;;;;;;;;;;;;16.36;49.99;102004.97;5043293;28;19999;-77
2022/07/06 00:47:31;;;;;;;;;;;;;;;16.27;50.43;102013.06;5040938;28;20342;-81
2022/07/06 00:50:17;;;;;;;;;;;;;;;16.19;49.88;102016.78;5042315;28;19928;-79
2022/07/06 00:52:44;;;;;;;;;;;;;;;16.32;50.13;102016.44;5021286;28;19929;-78
2022/07/06 00:55:09;;;;;;;;;;;;;;;16.45;50.19;102012.63;5023921;28;19935;-80
2022/07/06 00:57:35;;;;;;;;;;;;;;;16.51;49.81;102014.22;5043502;28;20639;-77
2022/07/06 01:00:01;;;;;;;;;;;;;;;16.30;50.03;102017.38;5045774;28;20682;-80
2022/07/06 01:02:26;;;;;;;;;;;;;;;16.20;51.46;102016.72;5046866;28;20031;-80
2022/07/06 01:04:52;;;;;;;;;;;;;;;16.07;51.24;102010.09;5040179;28;20438;-80
2022/07/06 01:07:17;;;;;;;;;;;;;;;16.12;51.13;102015.19;5020458;28;20699;-80
2022/07/06 01:09:43;;;;;;;;;;;;;;;16.27;50.75;102006.97;5043209;28;20359;-78
2022/07/06 01:12:09;;;;;;;;;;;;;;;16.38;50.16;102012.78;5039118;28;19925;-79
2022/07/06 01:14:35;;;;;;;;;;;;;;;16.30;50.52;102005.13;5037675;28;20399;-77
2022/07/06 01:17:00;;;;;;;;;;;;;;;16.34;50.79;102011.16;5042886;28;19943;-78
2022/07/06 01:19:26;;;;;;;;;;;;;;;16.32;50.15;102023.44;5022412;28;19925;-78
2022/07/06 01:21:51;;;;;;;;;;;;;;;16.27;51.01;102022.69;5037125;28;19924;-79
2022/07/06 01:24:16;;;;;;;;;;;;;;;16.20;50.59;102015.88;5014552;28;20335;-78
2022/07/06 01:26:42;;;;;;;;;;;;;;;16.23;50.65;102014.03;5043382;28;19928;-79
2022/07/06 01:29:07;;;;;;;;;;;;;;;16.16;51.05;102014.25;5040493;28;19945;-79
2022/07/06 01:31:32;;;;;;;;;;;;;;;15.89;51.71;102021.00;5039070;28;20017;-79
2022/07/06 01:33:59;;;;;;;;;;;;;;;16.12;50.93;102012.56;5038592;28;20315;-81
2022/07/06 01:36:25;;;;;;;;;;;;;;;16.11;50.74;102011.72;5040191;28;20390;-81
2022/07/06 01:38:54;;;;;;;;;;;;;;;16.11;51.31;102011.72;5038331;28;19933;-81
2022/07/06 01:41:20;;;;;;;;;;;;;;;16.15;51.09;102015.13;5021100;28;19932;-81
2022/07/06 01:43:46;;;;;;;;;;;;;;;16.27;51.20;102012.22;5035160;28;19921;-81
2022/07/06 01:46:12;;;;;;;;;;;;;;;16.13;51.39;102009.06;5036395;28;19940;-78
2022/07/06 01:48:37;;;;;;;;;;;;;;;16.20;50.75;102011.50;5020224;28;19921;-78
2022/07/06 01:51:03;;;;;;;;;;;;;;;16.23;50.95;102010.56;5047449;28;19971;-77
2022/07/06 01:53:28;;;;;;;;;;;;;;;16.12;50.85;102013.44;5039987;28;19924;-81
2022/07/06 01:55:53;;;;;;;;;;;;;;;16.05;50.94;101997.88;5023897;28;19932;-77
2022/07/06 01:58:19;;;;;;;;;;;;;;;15.87;51.79;102014.91;5040715;28;19948;-78
2022/07/06 02:00:44;;;;;;;;;;;;;;;16.00;51.09;102010.25;5025861;28;19924;-79
2022/07/06 02:03:09;;;;;;;;;;;;;;;15.97;51.27;102008.56;5041711;28;19994;-79
2022/07/06 02:05:35;;;;;;;;;;;;;;;16.04;51.36;102010.16;5045071;28;19928;-79
2022/07/06 02:08:00;;;;;;;;;;;;;;;16.00;51.75;102011.13;5040333;28;19929;-78
2022/07/06 02:10:25;;;;;;;;;;;;;;;15.96;52.25;102018.19;5027245;28;20327;-77
2022/07/06 02:12:51;;;;;;;;;;;;;;;16.04;52.28;102018.03;5039237;28;19932;-77
2022/07/06 02:15:16;;;;;;;;;;;;;;;16.02;52.33;102019.78;5041053;28;19921;-77
2022/07/06 02:17:41;;;;;;;;;;;;;;;15.93;52.39;102023.50;5039077;28;19975;-77
2022/07/06 02:20:07;;;;;;;;;;;;;;;15.88;51.97;102014.03;5030878;28;19920;-78
2022/07/06 02:22:32;;;;;;;;;;;;;;;16.07;52.30;102017.09;5044004;28;19924;-78
2022/07/06 02:24:57;;;;;;;;;;;;;;;16.05;52.27;102029.34;5041420;28;20291;-79
2022/07/06 02:27:23;;;;;;;;;;;;;;;15.91;52.83;102025.31;5022537;28;19925;-77
2022/07/06 02:29:48;;;;;;;;;;;;;;;16.08;52.35;102019.66;5046256;28;19924;-77
2022/07/06 02:32:13;;;;;;;;;;;;;;;15.87;53.11;102021.00;5033081;28;19924;-77
2022/07/06 02:34:39;;;;;;;;;;;;;;;15.93;53.57;102022.63;5043570;28;19924;-77
2022/07/06 02:37:04;;;;;;;;;;;;;;;16.11;53.04;102022.19;5039395;28;19968;-77
2022/07/06 02:39:29;;;;;;;;;;;;;;;15.87;53.10;102018.41;5046367;28;19925;-77
2022/07/06 02:41:55;;;;;;;;;;;;;;;15.76;53.90;102027.41;5046071;28;19921;-78
2022/07/06 02:44:20;;;;;;;;;;;;;;;15.76;53.89;102019.53;5038665;28;20600;-77
2022/07/06 02:46:45;;;;;;;;;;;;;;;15.79;53.76;102022.97;5026617;28;20413;-77
2022/07/06 02:49:11;;;;;;;;;;;;;;;15.67;52.98;102030.19;5042721;28;19971;-77
2022/07/06 02:51:36;;;;;;;;;;;;;;;15.71;53.24;102032.72;5040033;28;19960;-78
2022/07/06 02:54:01;;;;;;;;;;;;;;;15.77;54.02;102022.13;5045535;28;20276;-78
2022/07/06 02:56:28;;;;;;;;;;;;;;;15.85;53.69;102022.81;5039439;28;20016;-79
2022/07/06 02:58:53;;;;;;;;;;;;;;;15.75;54.94;102030.94;5022534;28;20445;-80
2022/07/06 03:01:18;;;;;;;;;;;;;;;15.72;54.00;102023.13;5022874;28;19936;-80
2022/07/06 03:03:43;;;;;;;;;;;;;;;15.71;54.13;102022.25;5023792;28;19921;-79
2022/07/06 03:06:09;;;;;;;;;;;;;;;15.56;54.65;102019.97;5033885;28;20019;-79
2022/07/06 03:08:34;;;;;;;;;;;;;;;15.51;54.78;102016.56;5040546;28;20006;-79
2022/07/06 03:11:00;;;;;;;;;;;;;;;15.52;54.57;102020.91;5011722;28;19956;-79
2022/07/06 03:13:26;;;;;;;;;;;;;;;15.62;54.47;102021.56;5040028;28;19921;-78
2022/07/06 03:15:51;;;;;;;;;;;;;;;15.67;54.46;102027.56;5047384;28;19929;-78
2022/07/06 03:18:16;;;;;;;;;;;;;;;15.68;54.20;102026.69;5043781;28;19928;-78
2022/07/06 03:20:42;;;;;;;;;;;;;;;15.58;53.88;102030.38;5041524;28;19925;-80
2022/07/06 03:23:07;;;;;;;;;;;;;;;15.60;53.94;102029.44;5042640;28;19925;-79
2022/07/06 03:25:32;;;;;;;;;;;;;;;15.29;54.53;102042.34;5040471;28;19925;-77
2022/07/06 03:27:58;;;;;;;;;;;;;;;15.53;54.57;102034.88;5041446;28;19974;-77
2022/07/06 03:30:23;;;;;;;;;;;;;;;15.37;54.62;102031.69;5034726;28;19936;-77
2022/07/06 03:32:48;;;;;;;;;;;;;;;15.29;54.68;102033.63;5044052;28;19928;-77
2022/07/06 03:35:14;;;;;;;;;;;;;;;15.50;54.49;102038.41;5040937;28;19926;-77
2022/07/06 03:37:39;;;;;;;;;;;;;;;15.58;54.23;102031.25;5037259;28;19971;-79
2022/07/06 03:40:05;;;;;;;;;;;;;;;15.35;54.54;102031.75;5027321;28;19935;-78
2022/07/06 03:42:30;;;;;;;;;;;;;;;15.13;55.08;102043.53;5025320;28;19928;-78
2022/07/06 03:44:55;;;;;;;;;;;;;;;15.21;55.09;102046.00;5036317;28;19967;-80
2022/07/06 03:47:21;;;;;;;;;;;;;;;15.36;54.46;102045.72;5025917;28;20015;-81
2022/07/06 03:49:46;;;;;;;;;;;;;;;15.46;54.26;102047.22;5024967;28;20027;-80
2022/07/06 03:52:11;;;;;;;;;;;;;;;15.17;54.61;102047.81;5035039;28;19971;-80
2022/07/06 03:54:37;;;;;;;;;;;;;;;15.26;54.46;102044.16;5039813;28;19925;-81
2022/07/06 03:57:02;;;;;;;;;;;;;;;15.27;54.52;102051.13;5012692;28;19932;-81
2022/07/06 03:59:27;;;;;;;;;;;;;;;15.27;54.10;102051.97;5018890;28;19920;-77
2022/07/06 04:01:53;;;;;;;;;;;;;;;15.27;54.14;102051.13;5021849;28;19925;-77
2022/07/06 04:04:18;;;;;;;;;;;;;;;15.13;53.68;102047.91;5038376;28;20041;-77
2022/07/06 04:06:43;;;;;;;;;;;;;;;15.24;54.07;102048.56;5036096;28;20518;-80
2022/07/06 04:09:09;;;;;;;;;;;;;;;15.26;54.11;102042.41;5034974;28;19932;-79
2022/07/06 04:11:34;;;;;;;;;;;;;;;15.05;54.59;102044.56;5041084;28;19924;-81
2022/07/06 04:14:00;;;;;;;;;;;;;;;14.98;55.08;102045.59;5036626;28;19927;-77
2022/07/06 04:16:25;;;;;;;;;;;;;;;14.82;54.91;102050.25;5044723;28;19947;-78
2022/07/06 04:18:50;;;;;;;;;;;;;;;15.00;54.66;102052.53;5018981;28;19932;-78
2022/07/06 04:21:16;;;;;;;;;;;;;;;15.16;54.64;102055.69;5043906;28;19936;-78
2022/07/06 04:23:41;;;;;;;;;;;;;;;15.26;53.54;102054.63;5040863;28;19975;-79
2022/07/06 04:26:06;;;;;;;;;;;;;;;14.68;55.27;102060.06;5022479;28;20291;-81
2022/07/06 04:28:31;;;;;;;;;;;;;;;15.05;54.65;102060.28;5038067;28;19999;-81
2022/07/06 04:30:57;;;;;;;;;;;;;;;15.08;54.38;102062.84;5041397;28;20036;-79
2022/07/06 04:33:22;;;;;;;;;;;;;;;14.84;55.56;102069.38;5022910;28;20004;-78
2022/07/06 04:35:48;;;;;;;;;;;;;;;14.89;55.38;102074.56;5040932;28;19927;-79
2022/07/06 04:38:13;;;;;;;;;;;;;;;14.91;54.66;102072.75;5038705;28;19928;-78
2022/07/06 04:40:39;;;;;;;;;;;;;;;15.06;54.93;102075.97;5041382;28;19932;-79
2022/07/06 04:43:04;;;;;;;;;;;;;;;15.04;55.29;102066.38;5044785;28;20343;-78
2022/07/06 04:45:29;;;;;;;;;;;;;;;15.06;54.82;102067.25;5027001;28;19958;-78
2022/07/06 04:47:55;;;;;;;;;;;;;;;15.01;55.10;102067.31;5040996;28;19928;-78
2022/07/06 04:50:20;;;;;;;;;;;;;;;15.09;55.21;102069.81;5042814;28;20384;-81
2022/07/06 04:52:46;;;;;;;;;;;;;;;15.17;55.35;102067.91;5043127;28;19925;-77
2022/07/06 04:55:12;;;;;;;;;;;;;;;15.04;55.02;102066.38;5038179;28;19917;-77
2022/07/06 04:57:37;;;;;;;;;;;;;;;15.15;55.15;102067.94;5040561;28;19990;-77
2022/07/06 05:00:04;;;;;;;;;;;;;;;15.14;55.64;102081.91;5040222;28;20414;-77
2022/07/06 05:02:29;;;;;;;;;;;;;;;15.24;55.58;102083.47;5043568;28;19928;-77
2022/07/06 05:04:54;;;;;;;;;;;;;;;15.25;55.56;102084.31;5022471;28;19925;-77
2022/07/06 05:07:20;;;;;;;;;;;;;;;15.26;55.05;102091.28;5041360;28;19951;-79
2022/07/06 05:09:45;;;;;;;;;;;;;;;14.81;56.48;102086.00;5026590;28;19936;-79
2022/07/06 05:12:10;;;;;;;;;;;;;;;15.13;56.06;102084.53;5047154;28;19976;-80
2022/07/06 05:14:36;;;;;;;;;;;;;;;15.27;55.98;102088.63;5027336;28;20403;-77
2022/07/06 05:17:01;;;;;;;;;;;;;;;15.38;55.03;102085.81;5046403;28;20007;-78
2022/07/06 05:19:27;;;;;;;;;;;;;;;15.31;55.33;102084.19;5048530;28;19925;-78
2022/07/06 05:21:52;;;;;;;;;;;;;;;15.38;54.60;102078.81;5036280;28;19920;-77
2022/07/06 05:24:18;;;;;;;;;;;;;;;15.35;55.17;102075.41;5051827;28;20024;-78
2022/07/06 05:26:44;;;;;;;;;;;;;;;15.27;56.35;102078.16;5051516;28;20019;-79
2022/07/06 05:29:09;;;;;;;;;;;;;;;15.18;56.51;102080.09;5043697;28;20729;-79
2022/07/06 05:31:35;;;;;;;;;;;;;;;15.00;57.32;102072.59;5052275;28;19917;-80
2022/07/06 05:34:00;;;;;;;;;;;;;;;15.37;55.65;102073.59;5050311;28;19921;-81
2022/07/06 05:36:25;;;;;;;;;;;;;;;15.17;57.34;102068.75;5042941;28;19927;-78
2022/07/06 05:38:51;;;;;;;;;;;;;;;15.43;56.32;102065.63;5048915;28;20354;-77
2022/07/06 05:41:16;;;;;;;;;;;;;;;15.47;55.30;102069.91;5050638;28;19921;-78
2022/07/06 05:43:41;;;;;;;;;;;;;;;15.38;55.54;102070.97;5049771;28;19920;-78
2022/07/06 05:46:07;;;;;;;;;;;;;;;15.40;55.97;102066.53;5050692;28;19923;-78
2022/07/06 05:51:16;;;;;;;;;;;;;;;15.32;57.19;102075.44;5045277;28;19971;-77
2022/07/06 05:53:41;;;;;;;;;;;;;;;15.60;56.04;102081.84;5050924;28;19917;-78
2022/07/06 05:56:09;;;;;;;;;;;;;;;15.51;55.89;102081.19;5037650;28;19931;-78
2022/07/06 05:58:34;;;;;;;;;;;;;;;15.43;56.72;102092.66;5049067;28;19932;-78
2022/07/06 06:01:00;;;;;;;;;;;;;;;15.57;56.44;102095.00;5048228;28;20292;-77
2022/07/06 06:03:25;;;;;;;;;;;;;;;15.59;57.35;102090.63;5043206;28;19925;-77
2022/07/06 06:05:50;;;;;;;;;;;;;;;15.60;56.52;102094.09;5036604;28;20672;-77
2022/07/06 06:08:16;;;;;;;;;;;;;;;15.68;56.33;102098.28;5039088;28;20493;-77
2022/07/06 06:10:41;;;;;;;;;;;;;;;15.68;55.89;102103.53;5024992;28;19925;-77
2022/07/06 06:13:06;;;;;;;;;;;;;;;15.69;56.21;102092.13;5044829;28;19924;-77
2022/07/06 06:15:32;;;;;;;;;;;;;;;15.83;56.08;102097.13;5025253;28;19979;-77
2022/07/06 06:17:57;;;;;;;;;;;;;;;15.85;56.16;102104.06;5048091;28;19967;-77
2022/07/06 06:20:22;;;;;;;;;;;;;;;15.60;56.20;102099.34;5026972;28;20406;-79
2022/07/06 06:22:49;;;;;;;;;;;;;;;15.88;55.43;102103.13;5028543;28;19975;-79
2022/07/06 06:25:18;;;;;;;;;;;;;;;15.82;55.63;102104.13;5046525;28;19925;-79
2022/07/06 06:27:43;;;;;;;;;;;;;;;15.82;55.44;102103.25;5047798;28;19921;-79
2022/07/06 06:30:09;;;;;;;;;;;;;;;15.88;55.67;102103.13;5044950;28;20261;-78
2022/07/06 06:32:34;;;;;;;;;;;;;;;15.69;55.67;102099.16;5045856;28;19972;-78
2022/07/06 06:35:00;;;;;;;;;;;;;;;15.89;55.06;102102.22;5047718;28;19921;-79
2022/07/06 06:37:25;;;;;;;;;;;;;;;15.81;55.32;102105.00;5028520;28;19960;-78
2022/07/06 06:39:50;;;;;;;;;;;;;;;15.97;55.69;102095.06;5032455;28;19924;-78
2022/07/06 06:42:16;;;;;;;;;;;;;;;15.55;56.16;102104.66;5049560;28;19970;-77
2022/07/06 06:44:41;;;;;;;;;;;;;;;15.62;56.39;102111.50;5043905;28;19974;-78
2022/07/06 06:47:06;;;;;;;;;;;;;;;15.75;56.07;102104.28;5048836;28;20495;-78
2022/07/06 06:49:31;;;;;;;;;;;;;;;15.95;55.54;102109.97;5030112;28;20269;-78
2022/07/06 06:51:57;;;;;;;;;;;;;;;15.62;56.61;102108.00;5051350;28;19920;-78
2022/07/06 06:54:22;;;;;;;;;;;;;;;15.99;55.74;102102.91;5030599;28;19925;-78
2022/07/06 06:56:47;;;;;;;;;;;;;;;15.78;56.08;102101.56;5032697;28;19960;-78
2022/07/06 06:59:13;;;;;;;;;;;;;;;15.85;56.40;102114.53;5042785;28;19929;-78
2022/07/06 07:01:38;;;;;;;;;;;;;;;15.95;56.06;102109.97;5044451;28;19920;-78
2022/07/06 07:04:04;;;;;;;;;;;;;;;16.11;54.74;102106.09;5045352;28;19921;-78
2022/07/06 07:06:29;;;;;;;;;;;;;;;16.16;55.20;102103.38;5046907;28;20522;-78
2022/07/06 07:08:55;;;;;;;;;;;;;;;16.05;55.03;102102.72;5046391;28;20122;-78
2022/07/06 07:11:21;;;;;;;;;;;;;;;16.12;54.66;102106.94;5050186;28;19925;-78
2022/07/06 07:13:46;;;;;;;;;;;;;;;16.17;53.58;102112.94;5040205;28;19955;-78
2022/07/06 07:16:12;;;;;;;;;;;;;;;16.18;53.61;102112.06;5043386;28;20384;-78
2022/07/06 07:18:37;;;;;;;;;;;;;;;16.19;53.60;102119.91;5034058;28;19925;-78
2022/07/06 07:21:02;;;;;;;;;;;;;;;16.17;53.21;102105.94;5040230;28;19920;-78
2022/07/06 07:23:28;;;;;;;;;;;;;;;16.22;54.54;102109.34;5041584;28;20063;-78
2022/07/06 07:25:53;;;;;;;;;;;;;;;16.25;53.48;102105.78;5030188;28;19924;-78
2022/07/06 07:28:18;;;;;;;;;;;;;;;16.18;53.19;102110.31;5029854;28;19925;-78
2022/07/06 07:30:44;;;;;;;;;;;;;;;16.27;51.81;102114.47;5034261;28;19981;-78
2022/07/06 07:33:09;;;;;;;;;;;;;;;16.01;51.19;102117.69;5044652;28;20418;-78
2022/07/06 07:35:34;;;;;;;;;;;;;;;16.21;50.37;102109.38;5045325;28;19924;-78
2022/07/06 07:38:00;;;;;;;;;;;;;;;16.24;51.28;102114.53;5042317;28;19932;-78
2022/07/06 07:40:25;;;;;;;;;;;;;;;16.24;51.17;102115.41;5034847;28;20312;-79
2022/07/06 07:42:50;;;;;;;;;;;;;;;16.14;50.83;102113.00;5036364;28;20399;-80
2022/07/06 07:45:16;;;;;;;;;;;;;;;16.30;51.11;102107.41;5042053;28;19932;-80
2022/07/06 07:47:41;;;;;;;;;;;;;;;16.42;52.01;102124.59;5040440;28;19932;-77
2022/07/06 07:50:07;;;;;;;;;;;;;;;16.38;51.71;102123.81;5044059;28;19964;-77
2022/07/06 07:52:32;;;;;;;;;;;;;;;16.50;52.12;102117.41;5028897;28;20428;-78
2022/07/06 07:54:58;;;;;;;;;;;;;;;16.46;52.33;102121.84;5027717;28;19917;-77
2022/07/06 07:57:23;;;;;;;;;;;;;;;16.45;51.89;102117.53;5028620;28;19936;-78
2022/07/06 07:59:48;;;;;;;;;;;;;;;16.51;52.46;102113.91;5048497;28;19981;-77
2022/07/06 08:02:14;;;;;;;;;;;;;;;16.46;51.81;102116.63;5029758;28;19928;-77
2022/07/06 08:04:39;;;;;;;;;;;;;;;16.52;51.84;102108.59;5047830;28;20303;-77
2022/07/06 08:07:04;;;;;;;;;;;;;;;16.56;51.93;102103.28;5044671;28;20368;-78
2022/07/06 08:09:30;;;;;;;;;;;;;;;16.58;50.71;102107.56;5043591;28;20033;-78
2022/07/06 08:11:55;;;;;;;;;;;;;;;16.53;49.60;102112.09;5041730;28;19996;-78
2022/07/06 08:14:21;;;;;;;;;;;;;;;16.47;50.12;102110.47;5035974;28;19929;-78
2022/07/06 08:16:46;;;;;;;;;;;;;;;16.52;50.08;102105.97;5034399;28;20002;-79
2022/07/06 08:19:14;;;;;;;;;;;;;;;16.36;49.98;102109.00;5037142;28;20448;-79
2022/07/06 08:21:40;;;;;;;;;;;;;;;16.47;49.74;102117.47;5026279;28;19928;-78
2022/07/06 08:24:05;;;;;;;;;;;;;;;16.59;50.22;102111.06;5031326;28;19921;-79
2022/07/06 08:26:31;;;;;;;;;;;;;;;16.56;50.28;102114.63;5027075;28;19981;-78
2022/07/06 08:28:56;;;;;;;;;;;;;;;16.61;49.98;102120.63;5045660;28;20055;-79
2022/07/06 08:31:22;;;;;;;;;;;;;;;16.42;51.49;102114.13;5046238;28;19916;-79
2022/07/06 08:33:48;;;;;;;;;;;;;;;16.47;51.50;102115.72;5043023;28;19932;-79
2022/07/06 08:36:14;;;;;;;;;;;;;;;16.57;49.20;102105.88;5022625;28;20406;-79
2022/07/06 08:38:39;;;;;;;;;;;;;;;16.59;49.88;102106.69;5040044;28;19925;-79
2022/07/06 08:41:05;;;;;;;;;;;;;;;16.75;48.19;102101.97;5039128;28;20358;-79
2022/07/06 08:43:31;;;;;;;;;;;;;;;16.76;48.45;102104.53;5045129;28;19950;-79
2022/07/06 08:45:58;;;;;;;;;;;;;;;16.70;48.31;102112.56;5041278;28;19932;-79
2022/07/06 08:48:24;;;;;;;;;;;;;;;16.78;48.95;102112.38;5024739;28;20038;-79
2022/07/06 08:50:50;;;;;;;;;;;;;;;16.68;48.80;102106.47;5029002;28;19924;-78
2022/07/06 08:53:17;;;;;;;;;;;;;;;16.59;50.47;102109.31;5042781;28;19989;-79
2022/07/06 08:55:42;;;;;;;;;;;;;;;16.75;49.89;102105.47;5042028;28;20071;-78
2022/07/06 08:58:08;;;;;;;;;;;;;;;16.80;49.54;102107.94;5040923;28;20015;-77
2022/07/06 09:00:34;;;;;;;;;;;;;;;16.75;50.26;102110.69;5042546;28;19920;-77
2022/07/06 09:03:00;;;;;;;;;;;;;;;16.79;49.42;102109.72;5043929;28;19925;-78
2022/07/06 09:05:25;;;;;;;;;;;;;;;16.81;49.16;102110.53;5042828;28;19925;-78
2022/07/06 09:07:51;;;;;;;;;;;;;;;16.84;49.40;102102.59;5048363;28;19931;-77
2022/07/06 09:10:17;;;;;;;;;;;;;;;16.72;48.49;102105.53;5041873;28;20384;-78
2022/07/06 09:12:43;;;;;;;;;;;;;;;16.75;48.54;102101.97;5044786;28;19947;-78
2022/07/06 09:15:08;;;;;;;;;;;;;;;16.71;48.04;102095.94;5035640;28;19929;-80
2022/07/06 09:17:37;;;;;;;;;;;;;;;16.84;47.54;102105.22;5038881;28;19983;-80
2022/07/06 09:20:03;;;;;;;;;;;;;;;16.96;48.37;102102.28;5042969;28;19925;-80
2022/07/06 09:22:31;;;;;;;;;;;;;;;16.83;49.26;102106.13;5038469;28;20042;-80
2022/07/06 09:25:09;;;;;;;;;;;;;;;16.78;50.21;102109.75;5047289;28;19948;-80
2022/07/06 09:27:39;;;;;;;;;;;;;;;16.84;50.43;102110.47;5040987;28;19921;-80
2022/07/06 09:30:05;;;;;;;;;;;;;;;16.90;50.40;102112.94;5044258;28;19925;-80
2022/07/06 09:32:30;;;;;;;;;;;;;;;16.93;49.88;102104.97;5038533;28;19978;-80
2022/07/06 09:34:56;;;;;;;;;;;;;;;16.84;50.25;102107.84;5042965;28;20359;-80
2022/07/06 09:37:22;;;;;;;;;;;;;;;16.88;50.50;102117.34;5040866;28;20024;-80
2022/07/06 09:39:47;;;;;;;;;;;;;;;16.95;49.15;102118.91;5041768;28;20388;-80
2022/07/06 09:42:13;;;;;;;;;;;;;;;16.81;48.53;102105.31;5036164;28;19925;-80
2022/07/06 09:44:40;;;;;;;;;;;;;;;16.82;48.16;102106.13;5042155;28;20099;-78
2022/07/06 09:47:06;;;;;;;;;;;;;;;17.02;49.44;102110.00;5038817;28;20447;-78
2022/07/06 09:49:32;;;;;;;;;;;;;;;16.94;48.24;102109.31;5029304;28;19928;-78
2022/07/06 09:51:58;;;;;;;;;;;;;;;16.99;46.94;102109.22;5042487;28;19932;-77
2022/07/06 09:54:24;;;;;;;;;;;;;;;17.00;47.32;102106.53;5045923;28;19944;-77
2022/07/06 09:56:53;;;;;;;;;;;;;;;16.95;48.12;102103.16;5041751;28;22411;-78
2022/07/06 09:59:22;;;;;;;;;;;;;;;16.86;47.89;102110.41;5046742;28;20387;-77
2022/07/06 10:01:50;;;;;;;;;;;;;;;17.03;47.95;102108.22;5040698;28;20467;-77
2022/07/06 10:04:18;;;;;;;;;;;;;;;16.98;48.09;102112.72;5037181;28;20007;-81
2022/07/06 10:06:44;;;;;;;;;;;;;;;17.01;48.27;102113.50;5038309;28;20005;-81
2022/07/06 10:09:10;;;;;;;;;;;;;;;16.93;46.98;102110.25;5036739;28;20708;-81
2022/07/06 10:11:40;;;;;;;;;;;;;;;17.06;47.10;102111.63;5039989;28;19929;-81
2022/07/06 10:14:06;;;;;;;;;;;;;;;16.99;48.85;102110.06;5040674;28;19920;-78
2022/07/06 10:16:34;;;;;;;;;;;;;;;17.19;48.45;102114.78;5027734;28;20418;-78
2022/07/06 10:19:01;;;;;;;;;;;;;;;17.07;47.40;102109.84;5038914;28;19921;-77
2022/07/06 10:21:26;;;;;;;;;;;;;;;17.18;47.55;102118.31;5026496;28;19925;-79
2022/07/06 10:23:52;;;;;;;;;;;;;;;17.25;47.77;102105.88;5026904;28;20409;-80
2022/07/06 10:26:18;;;;;;;;;;;;;;;17.34;49.61;102109.13;5045798;28;20003;-79
2022/07/06 10:28:44;;;;;;;;;;;;;;;17.27;47.90;102104.06;5041272;28;19925;-80
2022/07/06 10:31:10;;;;;;;;;;;;;;;17.32;48.12;102113.53;5041948;28;19935;-81
2022/07/06 10:33:36;;;;;;;;;;;;;;;17.28;46.68;102108.41;5045049;28;20337;-81
2022/07/06 10:36:02;;;;;;;;;;;;;;;17.17;47.18;102103.47;5037864;28;19928;-81
2022/07/06 10:38:31;;;;;;;;;;;;;;;17.25;46.39;102098.84;5041001;28;19948;-81
2022/07/06 10:41:07;;;;;;;;;;;;;;;17.29;47.50;102108.38;5041273;28;19924;-81
2022/07/06 10:43:32;;;;;;;;;;;;;;;17.23;46.04;102102.44;5039633;28;19929;-81
2022/07/06 10:45:58;;;;;;;;;;;;;;;17.24;45.71;102102.38;5041180;28;19928;-81
2022/07/06 10:48:24;;;;;;;;;;;;;;;17.05;44.74;102096.78;5041634;28;19971;-81
2022/07/06 10:50:54;;;;;;;;;;;;;;;17.05;45.44;102099.41;5028751;28;19917;-81
2022/07/06 10:53:23;;;;;;;;;;;;;;;17.05;44.89;102091.53;5038618;28;20011;-81
2022/07/06 10:55:51;;;;;;;;;;;;;;;17.11;46.23;102087.00;5043204;28;19932;-79
2022/07/06 10:58:35;;;;;;;;;;;;;;;17.19;44.61;102088.53;5039602;28;19963;-79
2022/07/06 11:01:00;;;;;;;;;;;;;;;17.21;44.26;102083.22;5045381;28;19913;-81
2022/07/06 11:03:30;;;;;;;;;;;;;;;17.30;44.43;102096.97;5042667;28;19929;-81
2022/07/06 11:06:04;;;;;;;;;;;;;;;17.26;43.66;102081.34;5040962;28;20013;-78
2022/07/06 11:08:50;;;;;;;;;;;;;;;17.20;44.40;102074.50;5024261;28;19935;-78
2022/07/06 11:11:16;;;;;;;;;;;;;;;17.39;44.27;102083.56;5027076;28;19928;-79
2022/07/06 11:13:47;;;;;;;;;;;;;;;17.32;44.49;102084.63;5042541;28;21500;-78
2022/07/06 11:16:13;;;;;;;;;;;;;;;17.39;44.84;102083.56;5043071;28;19971;-78
2022/07/06 11:18:45;;;;;;;;;;;;;;;17.33;43.65;102075.88;5038513;28;19921;-81
2022/07/06 11:21:21;;;;;;;;;;;;;;;17.49;44.23;102084.19;5039863;28;19977;-81
2022/07/06 11:23:48;;;;;;;;;;;;;;;17.53;44.05;102080.56;5041883;28;19939;-81
2022/07/06 11:26:14;;;;;;;;;;;;;;;17.52;43.62;102077.06;5045567;28;19932;-81
2022/07/06 11:28:39;;;;;;;;;;;;;;;17.56;44.39;102083.94;5039577;28;19925;-81
2022/07/06 11:31:05;;;;;;;;;;;;;;;17.44;43.82;102086.91;5022972;28;19925;-80
2022/07/06 11:33:30;;;;;;;;;;;;;;;17.37;44.68;102082.75;5045192;28;20089;-81
2022/07/06 11:36:14;;;;;;;;;;;;;;;17.44;44.65;102086.09;5039512;28;20028;-81
2022/07/06 11:38:40;;;;;;;;;;;;;;;17.53;44.34;102077.94;5020137;28;19998;-77
2022/07/06 11:41:05;;;;;;;;;;;;;;;17.64;44.69;102072.38;5044214;28;19976;-77
2022/07/06 11:43:31;;;;;;;;;;;;;;;17.58;44.99;102076.03;5040724;28;20020;-77
2022/07/06 11:45:56;;;;;;;;;;;;;;;17.55;45.02;102081.38;5036868;28;20003;-81
2022/07/06 11:48:21;;;;;;;;;;;;;;;17.62;45.04;102079.47;5044487;28;20010;-81
2022/07/06 11:50:59;;;;;;;;;;;;;;;17.49;44.39;102076.28;5041947;28;19925;-79
2022/07/06 11:53:24;;;;;;;;;;;;;;;17.57;44.77;102080.41;5047456;28;19916;-79
2022/07/06 11:55:49;;;;;;;;;;;;;;;17.59;45.14;102076.00;5034032;28;20012;-79
2022/07/06 11:58:16;;;;;;;;;;;;;;;17.52;44.29;102068.31;5043606;28;19933;-78
2022/07/06 12:00:41;;;;;;;;;;;;;;;17.56;45.20;102065.53;5049135;28;19931;-77
2022/07/06 12:03:06;;;;;;;;;;;;;;;17.69;45.17;102062.59;5047881;28;19929;-78
2022/07/06 12:05:32;;;;;;;;;;;;;;;17.78;44.39;102060.56;5048358;28;20391;-78
2022/07/06 12:08:04;;;;;;;;;;;;;;;17.80;43.80;102057.91;5044444;28;19929;-78
2022/07/06 12:10:35;;;;;;;;;;;;;;;17.83;44.07;102060.44;5045543;28;20640;-78
2022/07/06 12:13:04;;;;;;;;;;;;;;;17.88;41.75;102055.88;5047200;28;19920;-78
2022/07/06 12:15:29;;;;;;;;;;;;;;;17.90;41.07;102059.31;5047368;28;19932;-78
2022/07/06 12:17:54;;;;;;;;;;;;;;;17.88;41.76;102063.78;5053631;28;19929;-78
2022/07/06 12:20:20;;;;;;;;;;;;;;;17.88;42.77;102054.13;5040916;28;20605;-78
2022/07/06 12:22:45;;;;;;;;;;;;;;;17.85;43.15;102054.22;5042006;28;20666;-77
2022/07/06 12:25:10;;;;;;;;;;;;;;;17.84;43.15;102059.50;5041315;28;19974;-77
2022/07/06 12:27:36;;;;;;;;;;;;;;;17.82;43.30;102048.19;5027565;28;19925;-77
2022/07/06 12:30:11;;;;;;;;;;;;;;;17.81;42.45;102049.09;5040123;28;19968;-79
2022/07/06 12:32:36;;;;;;;;;;;;;;;17.81;42.65;102043.81;5044288;28;20442;-79